createdAt,value
2023-03-29T00:02:18.239Z,101833.84
2023-03-29T00:04:45.238Z,101838.94
2023-03-29T00:07:14.073Z,101827.28
2023-03-29T00:09:40.453Z,101827.50
2023-03-29T00:12:07.091Z,101826.50
2023-03-29T00:14:33.525Z,101824.63
2023-03-29T00:16:59.937Z,101824.41
2023-03-29T00:19:26.511Z,101818.31
2023-03-29T00:21:53.070Z,101816.44
2023-03-29T00:24:21.003Z,101814.63
2023-03-29T00:26:47.578Z,101808.91
2023-03-29T00:29:13.970Z,101796.03
2023-03-29T00:31:40.357Z,101790.72
2023-03-29T00:34:07.213Z,101788.84
2023-03-29T00:36:33.631Z,101783.34
2023-03-29T00:38:59.949Z,101782.50
2023-03-29T00:41:26.372Z,101787.03
2023-03-29T00:44:01.772Z,101772.09
2023-03-29T00:46:30.541Z,101771.09
2023-03-29T00:49:12.616Z,101765.53
2023-03-29T00:51:41.308Z,101764.75
2023-03-29T00:54:14.450Z,101768.19
2023-03-29T00:56:44.815Z,101763.72
2023-03-29T00:59:20.388Z,101757.38
2023-03-29T01:01:54.463Z,101751.84
2023-03-29T01:04:30.986Z,101756.53
2023-03-29T01:07:00.671Z,101749.38
2023-03-29T01:09:30.389Z,101745.47
2023-03-29T01:12:01.706Z,101733.59
2023-03-29T01:14:38.375Z,101731.56
2023-03-29T01:17:05.630Z,101728.47
2023-03-29T01:19:39.063Z,101731.75
2023-03-29T01:22:33.634Z,101731.13
2023-03-29T01:25:21.048Z,101726.41
2023-03-29T01:28:02.309Z,101729.44
2023-03-29T01:30:33.276Z,101733.53
2023-03-29T01:33:12.403Z,101726.94
2023-03-29T01:35:57.588Z,101727.16
2023-03-29T01:38:36.443Z,101725.69
2023-03-29T01:41:05.662Z,101724.22
2023-03-29T01:43:42.846Z,101714.19
2023-03-29T01:46:12.464Z,101716.44
2023-03-29T01:48:53.544Z,101711.94
2023-03-29T01:51:34.553Z,101709.66
2023-03-29T01:54:10.139Z,101706.59
2023-03-29T01:56:41.658Z,101703.94
2023-03-29T01:59:13.008Z,101698.97
2023-03-29T02:01:49.009Z,101700.63
2023-03-29T02:04:19.987Z,101702.03
2023-03-29T02:06:47.086Z,101696.47
2023-03-29T02:09:13.509Z,101696.28
2023-03-29T02:11:42.329Z,101687.47
2023-03-29T02:14:09.850Z,101692.78
2023-03-29T02:16:37.521Z,101687.47
2023-03-29T02:19:06.066Z,101683.16
2023-03-29T02:22:20.642Z,101680.50
2023-03-29T02:24:50.075Z,101670.69
2023-03-29T02:27:16.563Z,101685.63
2023-03-29T02:29:43.094Z,101681.13
2023-03-29T02:32:26.287Z,101680.09
2023-03-29T02:35:06.944Z,101671.31
2023-03-29T02:37:36.802Z,101664.13
2023-03-29T02:40:07.925Z,101663.09
2023-03-29T02:42:35.649Z,101662.50
2023-03-29T02:45:03.857Z,101658.81
2023-03-29T02:47:35.694Z,101664.94
2023-03-29T02:50:02.388Z,101664.72
2023-03-29T02:52:35.609Z,101650.63
2023-03-29T02:55:05.407Z,101652.22
2023-03-29T02:57:32.445Z,101659.19
2023-03-29T03:00:01.039Z,101650.16
2023-03-29T03:02:27.888Z,101650.16
2023-03-29T03:04:54.434Z,101647.50
2023-03-29T03:07:20.989Z,101652.03
2023-03-29T03:09:47.809Z,101649.38
2023-03-29T03:12:14.452Z,101646.69
2023-03-29T03:14:40.772Z,101639.75
2023-03-29T03:17:07.115Z,101637.09
2023-03-29T03:19:33.760Z,101633.59
2023-03-29T03:22:00.200Z,101623.78
2023-03-29T03:24:28.044Z,101623.56
2023-03-29T03:26:54.583Z,101622.94
2023-03-29T03:29:21.060Z,101617.63
2023-03-29T03:31:47.548Z,101622.75
2023-03-29T03:34:13.912Z,101621.13
2023-03-29T03:36:40.275Z,101613.94
2023-03-29T03:39:07.305Z,101615.56
2023-03-29T03:41:34.474Z,101620.09
2023-03-29T03:44:00.897Z,101620.09
2023-03-29T03:46:29.028Z,101620.88
2023-03-29T03:48:56.162Z,101614.53
2023-03-29T03:51:22.734Z,101614.53
2023-03-29T03:53:49.075Z,101626.00
2023-03-29T03:56:16.330Z,101626.00
2023-03-29T03:58:42.780Z,101617.19
2023-03-29T04:01:09.861Z,101619.66
2023-03-29T04:03:37.610Z,101615.97
2023-03-29T04:06:04.795Z,101613.50
2023-03-29T04:08:31.954Z,101611.69
2023-03-29T04:10:59.532Z,101617.00
2023-03-29T04:13:27.377Z,101617.00
2023-03-29T04:15:57.170Z,101615.13
2023-03-29T04:18:25.439Z,101613.31
2023-03-29T04:20:52.055Z,101603.47
2023-03-29T04:23:18.647Z,101612.25
2023-03-29T04:25:45.096Z,101613.09
2023-03-29T04:28:11.944Z,101596.28
2023-03-29T04:30:38.563Z,101606.72
2023-03-29T04:33:05.047Z,101600.56
2023-03-29T04:35:31.531Z,101592.41
2023-03-29T04:37:57.902Z,101588.09
2023-03-29T04:40:24.288Z,101590.53
2023-03-29T04:42:51.619Z,101593.19
2023-03-29T04:45:18.552Z,101587.88
2023-03-29T04:47:45.951Z,101594.03
2023-03-29T04:50:12.622Z,101594.81
2023-03-29T04:52:39.212Z,101587.44
2023-03-29T04:55:07.753Z,101577.81
2023-03-29T04:57:34.340Z,101588.25
2023-03-29T05:00:00.704Z,101588.03
2023-03-29T05:02:27.239Z,101586.19
2023-03-29T05:04:53.596Z,101587.22
2023-03-29T05:07:20.050Z,101584.34
2023-03-29T05:09:47.288Z,101580.66
2023-03-29T05:12:13.752Z,101583.09
2023-03-29T05:14:40.187Z,101577.75
2023-03-29T05:17:06.583Z,101572.22
2023-03-29T05:19:33.571Z,101569.53
2023-03-29T05:21:59.979Z,101568.50
2023-03-29T05:24:26.377Z,101578.97
2023-03-29T05:26:53.947Z,101577.72
2023-03-29T05:29:20.505Z,101576.69
2023-03-29T05:31:47.220Z,101584.44
2023-03-29T05:34:13.813Z,101579.97
2023-03-29T05:36:40.254Z,101583.22
2023-03-29T05:39:07.109Z,101586.44
2023-03-29T05:41:34.394Z,101581.13
2023-03-29T05:44:01.112Z,101587.66
2023-03-29T05:46:27.804Z,101587.44
2023-03-29T05:48:54.278Z,101586.38
2023-03-29T05:51:24.213Z,101584.53
2023-03-29T05:53:51.666Z,101591.50
2023-03-29T05:56:18.984Z,101590.47
2023-03-29T05:58:53.723Z,101583.06
2023-03-29T06:01:22.566Z,101585.28
2023-03-29T06:03:49.223Z,101580.53
2023-03-29T06:06:16.683Z,101590.75
2023-03-29T06:08:44.093Z,101583.56
2023-03-29T06:11:13.186Z,101580.72
2023-03-29T06:13:40.266Z,101590.69
2023-03-29T06:16:07.206Z,101594.75
2023-03-29T06:18:33.600Z,101586.31
2023-03-29T06:21:01.969Z,101585.06
2023-03-29T06:23:29.333Z,101588.91
2023-03-29T06:25:56.528Z,101591.13
2023-03-29T06:28:23.899Z,101594.16
2023-03-29T06:30:50.666Z,101591.25
2023-03-29T06:33:17.356Z,101592.44
2023-03-29T06:35:46.353Z,101587.47
2023-03-29T06:38:13.686Z,101590.28
2023-03-29T06:40:40.142Z,101592.88
2023-03-29T06:43:06.856Z,101586.06
2023-03-29T06:45:36.268Z,101587.00
2023-03-29T06:48:04.234Z,101584.47
2023-03-29T06:50:31.410Z,101590.53
2023-03-29T06:52:57.858Z,101590.88
2023-03-29T06:55:25.940Z,101592.66
2023-03-29T06:57:53.900Z,101590.09
2023-03-29T07:00:29.833Z,101593.94
2023-03-29T07:02:58.583Z,101591.63
2023-03-29T07:05:28.278Z,101600.56
2023-03-29T07:07:57.041Z,101607.69
2023-03-29T07:10:33.409Z,101599.19
2023-03-29T07:13:00.833Z,101601.09
2023-03-29T07:15:28.734Z,101602.13
2023-03-29T07:17:55.877Z,101592.06
2023-03-29T07:20:23.373Z,101599.25
2023-03-29T07:22:53.717Z,101595.34
2023-03-29T07:25:23.479Z,101604.47
2023-03-29T07:27:52.017Z,101597.63
2023-03-29T07:30:21.326Z,101603.56
2023-03-29T07:32:48.118Z,101610.53
2023-03-29T07:35:15.688Z,101606.34
2023-03-29T07:37:42.842Z,101607.16
2023-03-29T07:40:15.900Z,101610.41
2023-03-29T07:42:44.334Z,101606.34
2023-03-29T07:45:13.535Z,101597.03
2023-03-29T07:47:49.656Z,101615.03
2023-03-29T07:50:16.910Z,101620.03
2023-03-29T07:52:44.333Z,101618.63
2023-03-29T07:55:12.759Z,101615.59
2023-03-29T07:57:39.914Z,101606.66
2023-03-29T08:00:17.368Z,101610.84
2023-03-29T08:02:49.827Z,101601.66
2023-03-29T08:05:26.169Z,101606.03
2023-03-29T08:08:00.169Z,101598.13
2023-03-29T08:10:27.666Z,101610.78
2023-03-29T08:12:54.122Z,101607.84
2023-03-29T08:15:20.588Z,101607.84
2023-03-29T08:17:46.968Z,101610.31
2023-03-29T08:20:16.228Z,101607.25
2023-03-29T08:22:43.197Z,101618.25
2023-03-29T08:25:11.903Z,101608.50
2023-03-29T08:27:38.789Z,101607.53
2023-03-29T08:30:07.984Z,101608.91
2023-03-29T08:32:34.367Z,101601.88
2023-03-29T08:35:03.799Z,101593.59
2023-03-29T08:37:31.733Z,101597.91
2023-03-29T08:39:58.476Z,101590.06
2023-03-29T08:43:01.924Z,101592.91
2023-03-29T08:45:51.038Z,101589.50
2023-03-29T08:48:42.274Z,101584.94
2023-03-29T08:51:21.607Z,101581.16
2023-03-29T08:54:21.819Z,101590.41
2023-03-29T08:56:49.771Z,101589.09
2023-03-29T08:59:22.872Z,101604.19
2023-03-29T09:01:53.865Z,101601.19
2023-03-29T09:04:26.889Z,101619.78
2023-03-29T09:06:54.298Z,101609.97
2023-03-29T09:09:23.349Z,101614.31
2023-03-29T09:12:07.296Z,101622.75
2023-03-29T09:14:42.709Z,101614.97
2023-03-29T09:17:56.040Z,101614.63
2023-03-29T09:20:37.748Z,101615.31
2023-03-29T09:23:30.922Z,101608.06
2023-03-29T09:26:31.085Z,101606.09
2023-03-29T09:29:25.367Z,101614.13
2023-03-29T09:31:54.585Z,101608.44
2023-03-29T09:34:23.664Z,101597.31
2023-03-29T09:36:53.725Z,101607.59
2023-03-29T09:39:22.600Z,101605.59
2023-03-29T09:41:55.718Z,101605.75
2023-03-29T09:44:31.118Z,101611.66
2023-03-29T09:47:18.576Z,101609.00
2023-03-29T09:49:49.337Z,101607.38
2023-03-29T09:52:17.141Z,101598.81
2023-03-29T09:54:44.368Z,101591.75
2023-03-29T09:57:13.403Z,101607.72
2023-03-29T09:59:40.368Z,101604.59
2023-03-29T10:02:09.396Z,101606.19
2023-03-29T10:04:36.761Z,101613.41
2023-03-29T10:07:04.132Z,101611.97
2023-03-29T10:09:32.453Z,101606.03
2023-03-29T10:12:02.364Z,101607.78
2023-03-29T10:14:43.097Z,101602.53
2023-03-29T10:17:21.781Z,101603.19
2023-03-29T10:20:04.045Z,101592.09
2023-03-29T10:22:37.606Z,101595.22
2023-03-29T10:25:09.469Z,101591.28
2023-03-29T10:27:36.211Z,101583.94
2023-03-29T10:30:12.794Z,101590.41
2023-03-29T10:32:40.293Z,101590.06
2023-03-29T10:35:36.036Z,101592.19
2023-03-29T10:38:06.419Z,101578.22
2023-03-29T10:40:35.274Z,101579.38
2023-03-29T10:43:14.502Z,101579.34
2023-03-29T10:45:42.376Z,101575.44
2023-03-29T10:48:13.681Z,101578.97
2023-03-29T10:50:40.708Z,101572.63
2023-03-29T10:53:23.660Z,101574.75
2023-03-29T10:56:04.797Z,101572.63
2023-03-29T10:58:56.010Z,101563.34
2023-03-29T11:01:41.460Z,101555.91
2023-03-29T11:04:17.250Z,101550.56
2023-03-29T11:06:52.549Z,101544.81
2023-03-29T11:09:40.408Z,101547.56
2023-03-29T11:12:16.312Z,101566.31
2023-03-29T11:15:04.914Z,101561.16
2023-03-29T11:17:43.529Z,101554.31
2023-03-29T11:20:35.787Z,101544.03
2023-03-29T11:23:08.335Z,101545.16
2023-03-29T11:25:53.285Z,101541.09
2023-03-29T11:28:35.243Z,101542.56
2023-03-29T11:31:24.388Z,101559.47
2023-03-29T11:34:29.459Z,101553.38
2023-03-29T11:37:28.459Z,101546.09
2023-03-29T11:40:45.597Z,101554.44
2023-03-29T11:43:18.965Z,101548.53
2023-03-29T11:46:09.813Z,101544.59
2023-03-29T11:48:43.798Z,101543.03
2023-03-29T11:51:26.667Z,101538.63
2023-03-29T11:54:18.377Z,101545.09
2023-03-29T11:56:54.774Z,101550.22
2023-03-29T11:59:27.256Z,101551.31
2023-03-29T12:02:04.005Z,101555.88
2023-03-29T12:04:37.493Z,101561.59
2023-03-29T12:07:36.954Z,101562.69
2023-03-29T12:10:13.695Z,101557.00
2023-03-29T12:12:48.949Z,101555.13
2023-03-29T12:15:27.729Z,101556.19
2023-03-29T12:18:23.231Z,101549.47
2023-03-29T12:21:01.807Z,101548.06
2023-03-29T12:23:32.307Z,101537.81
2023-03-29T12:26:17.606Z,101544.50
2023-03-29T12:29:05.574Z,101540.97
2023-03-29T12:31:58.243Z,101538.28
2023-03-29T12:34:47.655Z,101544.41
2023-03-29T12:37:32.421Z,101535.25
2023-03-29T12:40:11.785Z,101528.25
2023-03-29T12:42:46.578Z,101528.81
2023-03-29T12:45:29.324Z,101528.97
2023-03-29T12:47:56.345Z,101543.69
2023-03-29T12:50:28.532Z,101539.66
2023-03-29T12:53:26.534Z,101523.56
2023-03-29T12:56:17.435Z,101520.34
2023-03-29T12:58:52.981Z,101496.16
2023-03-29T13:01:32.968Z,101487.38
2023-03-29T13:04:20.340Z,101480.69
2023-03-29T13:06:46.693Z,101469.94
2023-03-29T13:09:29.747Z,101474.28
2023-03-29T13:12:04.295Z,101471.38
2023-03-29T13:14:35.439Z,101466.28
2023-03-29T13:17:17.571Z,101472.19
2023-03-29T13:19:53.206Z,101467.94
2023-03-29T13:22:37.667Z,101459.91
2023-03-29T13:25:05.980Z,101451.84
2023-03-29T13:27:55.327Z,101451.06
2023-03-29T13:30:32.162Z,101435.50
2023-03-29T13:33:05.753Z,101447.91
2023-03-29T13:36:03.185Z,101442.22
2023-03-29T13:38:35.270Z,101439.03
2023-03-29T13:41:03.469Z,101440.91
2023-03-29T13:43:37.517Z,101451.38
2023-03-29T13:46:15.854Z,101446.53
2023-03-29T13:48:42.587Z,101447.09
2023-03-29T13:51:17.980Z,101455.75
2023-03-29T13:53:48.609Z,101448.44
2023-03-29T13:56:23.298Z,101437.69
2023-03-29T13:58:58.012Z,101430.69
2023-03-29T14:01:36.349Z,101419.16
2023-03-29T14:04:05.714Z,101418.59
2023-03-29T14:06:34.824Z,101414.00
2023-03-29T14:09:06.293Z,101407.00
2023-03-29T14:11:33.584Z,101401.34
2023-03-29T14:14:10.858Z,101399.75
2023-03-29T14:16:40.113Z,101396.50
2023-03-29T14:19:18.166Z,101394.31
2023-03-29T14:21:45.768Z,101398.09
2023-03-29T14:24:17.384Z,101391.88
2023-03-29T14:26:46.839Z,101388.38
2023-03-29T14:29:13.678Z,101392.41
2023-03-29T14:31:42.430Z,101383.25
2023-03-29T14:34:15.845Z,101384.84
2023-03-29T14:36:45.852Z,101378.91
2023-03-29T14:39:18.569Z,101374.03
2023-03-29T14:41:53.833Z,101363.81
2023-03-29T14:44:22.385Z,101366.16
2023-03-29T14:46:48.931Z,101362.94
2023-03-29T14:49:18.170Z,101359.69
2023-03-29T14:51:46.258Z,101361.50
2023-03-29T14:54:32.691Z,101351.53
2023-03-29T14:56:59.992Z,101345.03
2023-03-29T14:59:36.866Z,101342.38
2023-03-29T15:02:04.113Z,101333.75
2023-03-29T15:04:35.579Z,101331.28
2023-03-29T15:07:04.880Z,101328.56
2023-03-29T15:09:34.123Z,101327.19
2023-03-29T15:12:03.216Z,101313.66
2023-03-29T15:14:34.042Z,101314.16
2023-03-29T15:17:03.824Z,101309.53
2023-03-29T15:19:31.495Z,101309.28
2023-03-29T15:22:05.309Z,101306.91
2023-03-29T15:24:33.791Z,101307.16
2023-03-29T15:27:03.541Z,101304.78
2023-03-29T15:29:42.044Z,101292.41
2023-03-29T15:32:10.747Z,101290.22
2023-03-29T15:34:38.323Z,101289.69
2023-03-29T15:37:05.109Z,101287.50
2023-03-29T15:39:31.946Z,101283.19
2023-03-29T15:41:58.511Z,101281.88
2023-03-29T15:44:32.028Z,101275.41
2023-03-29T15:46:59.898Z,101271.09
2023-03-29T15:49:26.588Z,101271.13
2023-03-29T15:51:53.988Z,101267.88
2023-03-29T15:54:21.884Z,101267.06
2023-03-29T15:56:53.517Z,101263.56
2023-03-29T15:59:20.015Z,101261.97
2023-03-29T16:01:46.679Z,101250.41
2023-03-29T16:04:19.235Z,101239.41
2023-03-29T16:06:48.645Z,101233.16
2023-03-29T16:09:16.131Z,101233.47
2023-03-29T16:11:44.681Z,101232.88
2023-03-29T16:14:27.406Z,101229.91
2023-03-29T16:17:00.972Z,101204.31
2023-03-29T16:19:29.168Z,101200.53
2023-03-29T16:21:56.364Z,101205.69
2023-03-29T16:24:41.134Z,101191.97
2023-03-29T16:27:07.533Z,101196.84
2023-03-29T16:29:34.062Z,101185.75
2023-03-29T16:32:00.812Z,101184.94
2023-03-29T16:34:27.385Z,101186.81
2023-03-29T16:36:54.207Z,101179.81
2023-03-29T16:39:20.778Z,101166.13
2023-03-29T16:41:48.981Z,101164.50
2023-03-29T16:44:18.490Z,101160.22
2023-03-29T16:46:45.985Z,101151.69
2023-03-29T16:49:18.007Z,101143.63
2023-03-29T16:51:45.913Z,101157.69
2023-03-29T16:54:13.406Z,101164.44
2023-03-29T16:56:39.836Z,101173.09
2023-03-29T16:59:06.429Z,101148.59
2023-03-29T17:01:32.960Z,101152.66
2023-03-29T17:03:59.471Z,101153.22
2023-03-29T17:06:26.551Z,101135.97
2023-03-29T17:08:53.593Z,101157.28
2023-03-29T17:11:23.195Z,101155.66
2023-03-29T17:13:50.443Z,101145.44
2023-03-29T17:16:17.632Z,101155.16
2023-03-29T17:18:44.342Z,101152.19
2023-03-29T17:21:10.883Z,101144.41
2023-03-29T17:23:37.343Z,101135.50
2023-03-29T17:26:04.444Z,101137.41
2023-03-29T17:28:31.000Z,101129.06
2023-03-29T17:30:57.406Z,101132.56
2023-03-29T17:33:26.307Z,101133.94
2023-03-29T17:35:53.043Z,101125.88
2023-03-29T17:38:19.573Z,101123.72
2023-03-29T17:40:52.902Z,101111.91
2023-03-29T17:43:19.488Z,101109.50
2023-03-29T17:45:46.355Z,101106.00
2023-03-29T17:48:13.209Z,101098.50
2023-03-29T17:50:39.983Z,101096.06
2023-03-29T17:53:06.571Z,101104.97
2023-03-29T17:55:32.996Z,101100.16
2023-03-29T17:57:59.414Z,101093.75
2023-03-29T18:00:25.893Z,101093.22
2023-03-29T18:02:52.433Z,101094.06
2023-03-29T18:05:19.059Z,101090.31
2023-03-29T18:07:45.476Z,101091.97
2023-03-29T18:10:11.904Z,101088.22
2023-03-29T18:12:38.294Z,101089.84
2023-03-29T18:15:05.323Z,101086.41
2023-03-29T18:17:31.899Z,101090.72
2023-03-29T18:19:58.286Z,101078.91
2023-03-29T18:22:24.926Z,101077.31
2023-03-29T18:24:51.396Z,101081.66
2023-03-29T18:27:18.384Z,101080.59
2023-03-29T18:29:44.807Z,101077.66
2023-03-29T18:32:11.550Z,101077.66
2023-03-29T18:34:39.272Z,101070.97
2023-03-29T18:37:06.051Z,101062.91
2023-03-29T18:39:34.645Z,101059.97
2023-03-29T18:42:01.577Z,101072.63
2023-03-29T18:44:28.297Z,101068.59
2023-03-29T18:46:54.686Z,101068.09
2023-03-29T18:49:21.524Z,101067.56
2023-03-29T18:51:49.485Z,101069.16
2023-03-29T18:54:15.840Z,101075.63
2023-03-29T18:56:42.374Z,101068.63
2023-03-29T18:59:09.138Z,101067.03
2023-03-29T19:01:35.932Z,101061.41
2023-03-29T19:04:02.621Z,101056.56
2023-03-29T19:06:28.977Z,101065.69
2023-03-29T19:08:58.105Z,101068.38
2023-03-29T19:11:25.526Z,101066.25
2023-03-29T19:13:52.886Z,101061.94
2023-03-29T19:16:19.320Z,101063.31
2023-03-29T19:18:46.103Z,101058.47
2023-03-29T19:21:12.643Z,101051.75
2023-03-29T19:23:39.393Z,101048.53
2023-03-29T19:26:06.425Z,101052.59
2023-03-29T19:28:34.069Z,101048.00
2023-03-29T19:31:03.026Z,101048.81
2023-03-29T19:33:29.766Z,101040.78
2023-03-29T19:35:56.694Z,101040.78
2023-03-29T19:38:23.425Z,101023.03
2023-03-29T19:40:51.548Z,101012.84
2023-03-29T19:43:18.894Z,101005.84
2023-03-29T19:45:46.781Z,101005.06
2023-03-29T19:48:21.912Z,100998.88
2023-03-29T19:50:50.091Z,100993.78
2023-03-29T19:53:16.753Z,100984.13
2023-03-29T19:55:45.137Z,100987.09
2023-03-29T19:58:12.781Z,100977.97
2023-03-29T20:00:39.315Z,100977.44
2023-03-29T20:03:09.947Z,100978.22
2023-03-29T20:05:38.174Z,100959.97
2023-03-29T20:08:04.729Z,100958.09
2023-03-29T20:10:31.447Z,100963.47
2023-03-29T20:12:57.952Z,100951.91
2023-03-29T20:15:27.521Z,100946.81
2023-03-29T20:17:59.477Z,100950.03
2023-03-29T20:20:26.670Z,100941.44
2023-03-29T20:22:57.965Z,100943.88
2023-03-29T20:25:24.795Z,100933.41
2023-03-29T20:27:51.354Z,100932.84
2023-03-29T20:30:17.733Z,100933.13
2023-03-29T20:32:44.207Z,100932.06
2023-03-29T20:35:11.504Z,100926.69
2023-03-29T20:37:37.966Z,100910.88
2023-03-29T20:40:05.472Z,100903.63
2023-03-29T20:42:34.298Z,100900.38
2023-03-29T20:45:01.266Z,100883.44
2023-03-29T20:47:27.720Z,100888.28
2023-03-29T20:49:54.423Z,100877.25
2023-03-29T20:52:22.624Z,100876.72
2023-03-29T20:54:49.826Z,100877.25
2023-03-29T20:57:19.596Z,100868.34
2023-03-29T20:59:48.922Z,100857.06
2023-03-29T21:02:20.669Z,100851.41
2023-03-29T21:04:51.953Z,100853.00
2023-03-29T21:07:20.003Z,100851.63
2023-03-29T21:09:48.282Z,100837.13
2023-03-29T21:12:14.665Z,100839.03
2023-03-29T21:14:41.513Z,100831.22
2023-03-29T21:17:09.222Z,100838.19
2023-03-29T21:19:37.854Z,100848.41
2023-03-29T21:22:05.008Z,100837.09
2023-03-29T21:24:32.956Z,100844.09
2023-03-29T21:26:59.940Z,100833.06
2023-03-29T21:29:26.439Z,100821.00
2023-03-29T21:31:53.016Z,100826.59
2023-03-29T21:34:19.552Z,100816.38
2023-03-29T21:36:45.906Z,100820.69
2023-03-29T21:39:12.313Z,100816.13
2023-03-29T21:41:38.672Z,100803.78
2023-03-29T21:44:05.247Z,100807.56
2023-03-29T21:46:31.733Z,100809.97
2023-03-29T21:48:58.204Z,100810.25
2023-03-29T21:51:24.665Z,100804.91
2023-03-29T21:53:51.076Z,100803.84
2023-03-29T21:56:17.477Z,100785.31
2023-03-29T21:58:43.873Z,100786.41
2023-03-29T22:01:10.595Z,100788.31
2023-03-29T22:03:37.935Z,100779.72
2023-03-29T22:06:08.594Z,100784.00
2023-03-29T22:08:38.665Z,100779.72
2023-03-29T22:11:08.540Z,100770.63
2023-03-29T22:13:35.148Z,100766.91
2023-03-29T22:16:03.802Z,100763.38
2023-03-29T22:18:46.842Z,100765.78
2023-03-29T22:21:18.419Z,100772.22
2023-03-29T22:23:48.449Z,100777.56
2023-03-29T22:26:16.761Z,100777.59
2023-03-29T22:28:43.350Z,100764.47
2023-03-29T22:31:16.216Z,100772.81
2023-03-29T22:33:43.039Z,100767.69
2023-03-29T22:36:34.642Z,100762.88
2023-03-29T22:39:01.045Z,100771.22
2023-03-29T22:41:28.146Z,100762.63
2023-03-29T22:43:57.070Z,100771.22
2023-03-29T22:46:23.761Z,100771.22
2023-03-29T22:48:51.186Z,100759.94
2023-03-29T22:51:17.799Z,100763.16
2023-03-29T22:53:44.657Z,100756.19
2023-03-29T22:56:11.030Z,100753.47
2023-03-29T22:58:37.740Z,100742.22
2023-03-29T23:01:05.376Z,100739.00
2023-03-29T23:03:32.236Z,100746.25
2023-03-29T23:06:03.496Z,100726.66
2023-03-29T23:08:31.658Z,100733.09
2023-03-29T23:10:58.151Z,100735.78
2023-03-29T23:13:29.246Z,100730.09
2023-03-29T23:15:58.880Z,100733.59
2023-03-29T23:18:28.274Z,100723.66
2023-03-29T23:20:56.860Z,100718.53
2023-03-29T23:23:24.541Z,100720.66
2023-03-29T23:25:52.890Z,100714.19
2023-03-29T23:28:23.651Z,100720.06
2023-03-29T23:30:55.167Z,100718.47
2023-03-29T23:33:21.926Z,100713.56
2023-03-29T23:35:48.456Z,100717.56
2023-03-29T23:38:14.866Z,100715.69
2023-03-29T23:40:41.284Z,100705.97
2023-03-29T23:43:07.674Z,100700.34
2023-03-29T23:45:36.163Z,100701.41
2023-03-29T23:48:02.678Z,100697.09
2023-03-29T23:50:29.121Z,100710.28
2023-03-29T23:52:55.460Z,100693.31
2023-03-29T23:55:21.820Z,100689.84
2023-03-29T23:57:48.305Z,100697.13
